Time;durP1;ratioP1;P1;durP2;ratioP2;P2;SDS_P1;SDS_P2;PMS_P1;PMS_P2;Temp;Humidity;BMP_temperature;BMP_pressure;BME280_temperature;BME280_humidity;BME280_pressure;Samples;Min_cycle;Max_cycle;Signal;HPM_P1;HPM_P2
2020/12/01 00:00:00;;;;;;;23.50;13.80;;;;;;;-0.25;100.00;151308.09;5092052;28;20788;-82
2020/12/01 00:02:35;;;;;;;21.57;13.73;;;;;;;-0.24;100.00;151309.38;5097082;28;20456;-83
2020/12/01 00:05:12;;;;;;;22.27;13.40;;;;;;;-0.25;100.00;151308.09;5089211;28;20446;-84
2020/12/01 00:07:48;;;;;;;15.80;12.33;;;;;;;-0.21;100.00;151317.03;5074642;28;20433;-84
2020/12/01 00:10:23;;;;;;;19.67;12.93;;;;;;;-0.20;100.00;151320.91;5073894;28;20870;-84
2020/12/01 00:12:59;;;;;;;19.23;12.97;;;;;;;-0.24;100.00;151310.63;5073553;28;20453;-84
2020/12/01 00:15:35;;;;;;;21.50;12.80;;;;;;;-0.25;100.00;151306.81;5100256;28;20552;-84
2020/12/01 00:18:10;;;;;;;22.50;13.33;;;;;;;-0.22;100.00;151315.81;5077191;28;20467;-84
2020/12/01 00:20:45;;;;;;;22.27;13.87;;;;;;;-0.22;100.00;151315.81;5095382;28;20947;-84
2020/12/01 00:23:21;;;;;;;22.03;13.97;;;;;;;-0.19;100.00;151322.22;5088921;28;20654;-84
2020/12/01 00:25:56;;;;;;;16.53;11.07;;;;;;;-0.16;100.00;151331.16;5096142;28;20435;-84
2020/12/01 00:28:33;;;;;;;20.87;13.00;;;;;;;-0.14;100.00;151336.34;5104224;28;20479;-84
2020/12/01 00:31:08;;;;;;;19.20;12.80;;;;;;;-0.13;100.00;151337.56;5080130;28;20448;-74
2020/12/01 00:33:44;;;;;;;23.50;13.83;;;;;;;-0.10;100.00;151346.56;5094626;28;20848;-74
2020/12/01 00:36:25;;;;;;;19.70;13.43;;;;;;;-0.07;100.00;151352.97;5092655;28;20432;-74
2020/12/01 00:39:01;;;;;;;21.30;13.40;;;;;;;-0.05;100.00;151359.41;5101227;28;20443;-74
2020/12/01 00:41:37;;;;;;;21.63;13.40;;;;;;;-0.04;100.00;151360.69;5104987;28;20439;-75
2020/12/01 00:44:13;;;;;;;23.20;13.97;;;;;;;-0.01;100.00;151368.41;5084921;28;20927;-75
2020/12/01 00:46:49;;;;;;;17.33;13.00;;;;;;;0.10;100.00;151395.34;5102828;28;20458;-74
2020/12/01 00:49:24;;;;;;;24.03;14.07;;;;;;;0.17;100.00;151413.28;5093774;28;20436;-74
2020/12/01 00:52:05;;;;;;;23.43;13.77;;;;;;;0.17;100.00;151414.59;5082359;28;20461;-74
2020/12/01 00:54:40;;;;;;;20.93;14.20;;;;;;;0.16;100.00;151412.00;5103704;28;20459;-75
2020/12/01 00:57:16;;;;;;;18.50;12.20;;;;;;;0.17;100.00;151413.28;5098810;28;20444;-75
2020/12/01 00:59:52;;;;;;;18.70;11.70;;;;;;;0.23;100.00;151428.72;5086351;28;20456;-75
2020/12/01 01:02:35;;;;;;;23.27;14.23;;;;;;;0.18;100.00;151415.88;5087858;28;20448;-75
2020/12/01 01:05:11;;;;;;;21.70;13.50;;;;;;;0.20;100.00;151422.28;5095278;28;20436;-75
2020/12/01 01:07:46;;;;;;;22.60;13.77;;;;;;;0.24;100.00;151432.53;5098598;28;20485;-75
2020/12/01 01:10:24;;;;;;;22.57;14.70;;;;;;;0.27;100.00;151440.25;5097195;28;20929;-75
2020/12/01 01:13:00;;;;;;;22.67;13.70;;;;;;;0.22;100.00;151427.41;5094284;28;20453;-75
2020/12/01 01:15:36;;;;;;;19.33;13.23;;;;;;;0.22;100.00;151427.41;5200458;22;20889;-75
2020/12/01 01:18:11;;;;;;;26.80;14.33;;;;;;;0.25;100.00;151435.13;5009458;28;20466;-75
2020/12/01 01:20:47;;;;;;;21.93;13.73;;;;;;;0.28;100.00;151442.84;4992922;28;20458;-75
2020/12/01 01:23:22;;;;;;;22.80;13.27;;;;;;;0.29;100.00;151445.38;5010005;28;20451;-75
2020/12/01 01:25:58;;;;;;;20.23;13.50;;;;;;;0.27;100.00;151438.97;5009067;28;20443;-75
2020/12/01 01:28:33;;;;;;;23.27;13.80;;;;;;;0.24;100.00;151431.28;5017546;28;20456;-75
2020/12/01 01:31:09;;;;;;;21.97;13.97;;;;;;;0.23;100.00;151428.72;5004315;28;20447;-76
2020/12/01 01:33:45;;;;;;;23.13;14.93;;;;;;;0.27;100.00;151440.25;5024503;28;20436;-75
2020/12/01 01:36:21;;;;;;;22.13;13.77;;;;;;;0.27;100.00;151438.97;5008615;28;20444;-75
2020/12/01 01:38:56;;;;;;;20.77;13.87;;;;;;;0.29;100.00;151444.13;5041177;28;20535;-76
2020/12/01 01:41:32;;;;;;;25.87;14.67;;;;;;;0.29;100.00;151445.38;5007204;28;20904;-76
2020/12/01 01:44:22;;;;;;;19.10;13.30;;;;;;;0.27;100.00;151438.97;5008950;28;20856;-76
2020/12/01 01:47:03;;;;;;;21.70;13.90;;;;;;;0.30;100.00;151446.66;5005345;28;20787;-76
2020/12/01 01:49:40;;;;;;;23.23;13.73;;;;;;;0.29;100.00;151445.38;5034431;28;20822;-76
2020/12/01 01:52:19;;;;;;;21.80;13.53;;;;;;;0.32;100.00;151451.84;5011047;28;20450;-76
2020/12/01 01:54:57;;;;;;;22.80;13.57;;;;;;;0.31;100.00;151450.53;5010474;28;20491;-76
2020/12/01 01:57:32;;;;;;;18.50;12.80;;;;;;;0.33;100.00;151454.38;5011308;28;20446;-76
2020/12/01 02:00:18;;;;;;;23.67;14.63;;;;;;;0.35;100.00;151459.50;4995413;28;21228;-76
2020/12/01 02:02:54;;;;;;;20.70;14.13;;;;;;;0.35;100.00;151460.78;5010485;28;20440;-76
2020/12/01 02:05:46;;;;;;;21.47;12.73;;;;;;;0.37;100.00;151465.91;5002724;28;20858;-76
2020/12/01 02:08:37;;;;;;;21.07;12.67;;;;;;;0.36;100.00;151462.09;5005398;28;20451;-76
2020/12/01 02:11:12;;;;;;;23.23;13.30;;;;;;;0.38;100.00;151467.19;4988709;28;20462;-76
2020/12/01 02:13:56;;;;;;;21.87;13.80;;;;;;;0.40;100.00;151472.31;5009336;28;20444;-76
2020/12/01 02:16:32;;;;;;;23.47;13.33;;;;;;;0.38;100.00;151468.50;5041777;28;20566;-76
2020/12/01 02:19:13;;;;;;;21.50;13.00;;;;;;;0.42;100.00;151477.50;5010803;28;21170;-76
2020/12/01 02:21:49;;;;;;;21.97;13.23;;;;;;;0.43;100.00;151480.03;5010106;28;20445;-75
2020/12/01 02:24:27;;;;;;;25.23;13.70;;;;;;;0.40;100.00;151473.63;5010322;28;20818;-75
2020/12/01 02:27:03;;;;;;;22.10;12.40;;;;;;;0.41;100.00;151474.91;5012171;28;20457;-75
2020/12/01 02:29:43;;;;;;;16.77;12.30;;;;;;;0.49;100.00;151495.44;5010422;28;20437;-75
2020/12/01 02:32:20;;;;;;;20.70;12.13;;;;;;;0.42;100.00;151478.78;5009775;28;20846;-75
2020/12/01 02:34:58;;;;;;;20.37;12.63;;;;;;;0.44;100.00;151482.63;4994558;28;20468;-75
2020/12/01 02:37:33;;;;;;;21.53;12.50;;;;;;;0.49;100.00;151495.44;5010514;28;20441;-75
2020/12/01 02:40:11;;;;;;;15.87;11.43;;;;;;;0.46;100.00;151489.03;5043735;28;20463;-75
2020/12/01 02:42:51;;;;;;;18.97;12.47;;;;;;;0.46;100.00;151487.75;5012420;28;20535;-75
2020/12/01 02:45:26;;;;;;;19.20;12.20;;;;;;;0.46;100.00;151487.75;5013357;28;20450;-75
2020/12/01 02:48:02;;;;;;;21.13;13.23;;;;;;;0.47;100.00;151490.34;5013223;28;20451;-75
2020/12/01 02:50:37;;;;;;;20.67;11.77;;;;;;;0.48;100.00;151494.16;5013803;28;20444;-75
2020/12/01 02:53:12;;;;;;;17.97;11.80;;;;;;;0.56;100.00;151513.41;5013899;28;20454;-75
2020/12/01 02:55:47;;;;;;;20.00;13.17;;;;;;;0.52;100.00;151504.47;5046104;28;20511;-75
2020/12/01 02:58:24;;;;;;;18.13;12.37;;;;;;;0.51;100.00;151501.88;5011138;28;20453;-75
2020/12/01 03:00:59;;;;;;;19.80;11.50;;;;;;;0.57;100.00;151516.00;5013273;28;20542;-75
2020/12/01 03:03:34;;;;;;;21.03;10.87;;;;;;;0.63;100.00;151531.41;5047271;28;20429;-75
2020/12/01 03:06:11;;;;;;;17.80;11.00;;;;;;;0.56;100.00;151513.41;5007436;28;20543;-75
2020/12/01 03:08:47;;;;;;;16.83;11.00;;;;;;;0.56;100.00;151513.41;5012058;28;20449;-75
2020/12/01 03:11:23;;;;;;;17.57;10.33;;;;;;;0.58;100.00;151519.81;5013145;28;20457;-75
2020/12/01 03:13:59;;;;;;;15.90;10.70;;;;;;;0.57;100.00;151516.00;5013011;28;20482;-76
2020/12/01 03:16:34;;;;;;;17.77;11.77;;;;;;;0.63;100.00;151531.41;5034927;28;20473;-76
2020/12/01 03:19:10;;;;;;;19.97;11.13;;;;;;;0.62;100.00;151528.81;5011362;28;20940;-76
2020/12/01 03:21:45;;;;;;;18.00;10.43;;;;;;;0.66;100.00;151539.13;5021032;28;20535;-76
2020/12/01 03:24:20;;;;;;;15.47;10.33;;;;;;;0.66;100.00;151539.13;5012889;28;20449;-76
2020/12/01 03:26:56;;;;;;;16.53;10.07;;;;;;;0.68;100.00;151542.97;5012477;28;20436;-76
2020/12/01 03:29:32;;;;;;;19.40;9.90;;;;;;;0.71;100.00;151551.97;5013685;28;20462;-76
2020/12/01 03:32:07;;;;;;;16.30;10.57;;;;;;;0.69;100.00;151546.78;5008178;28;20468;-76
2020/12/01 03:34:42;;;;;;;15.13;10.33;;;;;;;0.72;100.00;151554.50;5028950;28;20479;-76
2020/12/01 03:37:18;;;;;;;15.83;10.00;;;;;;;0.67;100.00;151540.38;5014586;28;20477;-76
2020/12/01 03:39:53;;;;;;;18.20;11.60;;;;;;;0.70;100.00;151548.09;5012257;28;20442;-76
2020/12/01 03:42:28;;;;;;;16.63;9.47;;;;;;;0.67;100.00;151541.66;5012412;28;20449;-76
2020/12/01 03:45:04;;;;;;;17.40;9.67;;;;;;;0.67;100.00;151541.66;5012646;28;20448;-76
2020/12/01 03:47:40;;;;;;;16.63;9.80;;;;;;;0.67;100.00;151541.66;5012279;28;20445;-75
2020/12/01 03:50:16;;;;;;;16.00;10.20;;;;;;;0.65;100.00;151536.53;5011519;28;20906;-76
2020/12/01 03:52:52;;;;;;;15.87;10.20;;;;;;;0.66;100.00;151539.13;5014080;28;20533;-75
2020/12/01 03:55:27;;;;;;;18.20;10.60;;;;;;;0.69;100.00;151546.78;5010287;28;20833;-74
2020/12/01 03:58:03;;;;;;;15.43;8.93;;;;;;;0.65;100.00;151535.25;5018158;28;20454;-76
2020/12/01 04:00:39;;;;;;;13.63;10.30;;;;;;;0.70;100.00;151549.38;5016017;28;20460;-76
2020/12/01 04:03:15;;;;;;;18.60;10.67;;;;;;;0.68;100.00;151544.25;4997571;28;20444;-76
2020/12/01 04:05:50;;;;;;;16.13;10.00;;;;;;;0.68;100.00;151544.25;5007966;28;20546;-76
2020/12/01 04:08:25;;;;;;;15.30;9.50;;;;;;;0.72;100.00;151554.50;5044986;28;20477;-76
2020/12/01 04:11:02;;;;;;;20.10;11.17;;;;;;;0.69;100.00;151546.78;5028236;28;20473;-76
2020/12/01 04:13:37;;;;;;;17.00;9.60;;;;;;;0.72;100.00;151553.22;5011957;28;20454;-76
2020/12/01 04:16:14;;;;;;;16.60;10.00;;;;;;;0.74;100.00;151559.66;5010996;28;20483;-76
2020/12/01 04:18:50;;;;;;;19.47;10.17;;;;;;;0.74;100.00;151559.66;5010775;28;20922;-76
2020/12/01 04:21:26;;;;;;;18.07;10.10;;;;;;;0.74;100.00;151559.66;5012097;28;20462;-76
2020/12/01 04:24:01;;;;;;;16.53;10.23;;;;;;;0.75;100.00;151562.22;5011157;28;20454;-76
2020/12/01 04:26:37;;;;;;;17.63;9.10;;;;;;;0.76;100.00;151564.81;5012388;28;20546;-76
2020/12/01 04:29:12;;;;;;;15.17;10.20;;;;;;;0.74;100.00;151559.66;4989618;28;21637;-76
2020/12/01 04:31:48;;;;;;;16.77;9.70;;;;;;;0.73;100.00;151557.09;5010086;28;20798;-76
2020/12/01 04:34:23;;;;;;;13.83;9.27;;;;;;;0.78;100.00;151569.91;5012859;28;20453;-76
2020/12/01 04:36:59;;;;;;;16.37;10.07;;;;;;;0.83;100.00;151582.75;5012684;28;20461;-75
2020/12/01 04:39:45;;;;;;;14.90;9.47;;;;;;;0.80;100.00;151573.75;5029028;28;20461;-76
2020/12/01 04:42:25;;;;;;;14.83;10.10;;;;;;;0.80;100.00;151573.75;4999941;28;20453;-76
2020/12/01 04:45:16;;;;;;;19.53;10.50;;;;;;;0.81;100.00;151576.34;5003688;28;20474;-76
2020/12/01 04:47:56;;;;;;;14.63;9.87;;;;;;;0.77;100.00;151566.09;5027060;28;20450;-76
2020/12/01 04:50:35;;;;;;;16.53;9.90;;;;;;;0.77;100.00;151567.34;5011938;28;20446;-76
2020/12/01 04:53:46;;;;;;;14.57;9.00;;;;;;;0.86;100.00;151589.19;4995807;28;20449;-76
2020/12/01 04:56:51;;;;;;;13.57;8.83;;;;;;;0.92;100.00;151604.59;4952490;29;20473;-76
2020/12/01 04:59:48;;;;;;;15.67;10.13;;;;;;;0.87;100.00;151591.75;5011401;28;20897;-76
2020/12/01 05:02:35;;;;;;;16.00;10.40;;;;;;;0.86;100.00;151589.19;5043756;28;20921;-76
2020/12/01 05:05:24;;;;;;;14.20;10.43;;;;;;;0.86;100.00;151589.19;5008492;28;20842;-76
2020/12/01 05:08:33;;;;;;;14.10;8.70;;;;;;;0.87;100.00;151593.06;5012883;28;20455;-76
2020/12/01 05:11:17;;;;;;;14.60;8.97;;;;;;;0.85;100.00;151586.63;5010785;28;20450;-76
2020/12/01 05:13:57;;;;;;;14.70;9.70;;;;;;;0.91;100.00;151602.00;5011569;28;20454;-76
2020/12/01 05:16:41;;;;;;;16.20;9.70;;;;;;;0.87;100.00;151593.06;5043678;28;20469;-76
2020/12/01 05:19:42;;;;;;;14.07;10.07;;;;;;;0.89;100.00;151598.19;5042042;28;20451;-76
2020/12/01 05:22:19;;;;;;;16.30;9.47;;;;;;;0.90;100.00;151600.72;5010440;28;20490;-76
2020/12/01 05:24:55;;;;;;;17.43;10.70;;;;;;;0.94;100.00;151611.03;5000865;28;20487;-76
2020/12/01 05:27:33;;;;;;;17.73;11.13;;;;;;;0.94;100.00;151611.03;5011903;28;20453;-76
2020/12/01 05:30:14;;;;;;;16.40;10.37;;;;;;;0.96;100.00;151616.16;5012962;28;20455;-76
2020/12/01 05:32:55;;;;;;;15.10;10.20;;;;;;;0.92;100.00;151605.91;5011568;28;20456;-76
2020/12/01 05:35:32;;;;;;;18.30;10.80;;;;;;;0.91;100.00;151603.31;5009305;28;20478;-76
2020/12/01 05:38:18;;;;;;;14.37;9.13;;;;;;;0.90;100.00;151599.47;5012324;28;20474;-76
2020/12/01 05:40:55;;;;;;;16.70;9.73;;;;;;;0.93;100.00;151608.44;5039840;28;20938;-76
2020/12/01 05:43:33;;;;;;;14.80;10.27;;;;;;;0.96;100.00;151614.84;5002497;28;20442;-76
2020/12/01 05:46:14;;;;;;;19.60;11.00;;;;;;;0.92;100.00;151605.91;5028920;28;20546;-76
2020/12/01 05:48:58;;;;;;;16.70;11.30;;;;;;;0.95;100.00;151613.59;5010278;28;20825;-76
2020/12/01 05:51:43;;;;;;;16.70;10.47;;;;;;;0.91;100.00;151603.31;5010195;28;20451;-76
2020/12/01 05:54:23;;;;;;;13.60;9.60;;;;;;;0.94;100.00;151609.72;5039426;28;20549;-76
2020/12/01 05:56:59;;;;;;;17.07;10.77;;;;;;;0.91;100.00;151603.31;5011870;28;20443;-76
2020/12/01 05:59:35;;;;;;;16.57;10.30;;;;;;;0.88;100.00;151595.59;4995621;28;20981;-76
2020/12/01 06:02:11;;;;;;;15.17;10.07;;;;;;;0.89;100.00;151598.19;5035617;28;20873;-76
2020/12/01 06:04:46;;;;;;;16.27;10.57;;;;;;;0.90;100.00;151600.72;5025755;28;20439;-76
2020/12/01 06:07:26;;;;;;;16.13;10.83;;;;;;;0.90;100.00;151599.47;5024465;28;21684;-76
2020/12/01 06:10:17;;;;;;;18.27;10.77;;;;;;;0.91;100.00;151602.00;4995248;28;20435;-76
2020/12/01 06:13:07;;;;;;;17.17;10.93;;;;;;;0.90;100.00;151600.72;5014146;28;20449;-76
2020/12/01 06:15:55;;;;;;;17.53;10.40;;;;;;;0.91;100.00;151603.31;5014906;28;20490;-76
2020/12/01 06:18:41;;;;;;;16.80;11.20;;;;;;;0.89;100.00;151598.19;5032740;28;20455;-89
2020/12/01 06:21:27;;;;;;;14.30;10.50;;;;;;;0.94;100.00;151609.72;5015752;28;20479;-89
2020/12/01 06:24:39;;;;;;;13.70;10.00;;;;;;;0.94;100.00;151611.03;5015902;28;20443;-90
2020/12/01 06:27:48;;;;;;;14.87;10.43;;;;;;;0.99;100.00;151622.56;5015928;28;20470;-89
2020/12/01 06:30:46;;;;;;;17.10;10.23;;;;;;;0.98;100.00;151620.03;4985582;28;20846;-87
2020/12/01 06:34:00;;;;;;;17.80;10.63;;;;;;;0.94;100.00;151611.03;4996868;28;20441;-90
2020/12/01 06:36:59;;;;;;;14.53;9.47;;;;;;;0.93;100.00;151607.13;4996341;28;20473;-88
2020/12/01 06:39:46;;;;;;;17.13;9.73;;;;;;;0.97;100.00;151618.72;4990030;28;20456;-90
2020/12/01 06:42:25;;;;;;;13.17;9.43;;;;;;;0.95;100.00;151613.59;5026395;28;20444;-76
2020/12/01 06:45:05;;;;;;;16.00;10.43;;;;;;;0.96;100.00;151616.16;5008310;28;20851;-76
2020/12/01 06:47:41;;;;;;;13.47;9.30;;;;;;;0.97;100.00;151617.44;5024406;28;20448;-76
2020/12/01 06:50:18;;;;;;;15.03;10.40;;;;;;;0.95;100.00;151613.59;5014521;28;20549;-76
2020/12/01 06:52:56;;;;;;;16.77;9.97;;;;;;;0.98;100.00;151621.28;5013220;28;20436;-76
2020/12/01 06:55:50;;;;;;;16.87;10.50;;;;;;;0.97;100.00;151617.44;5013292;28;20887;-76
2020/12/01 06:58:36;;;;;;;17.40;10.40;;;;;;;0.99;100.00;151623.84;5028272;28;20452;-76
2020/12/01 07:01:32;;;;;;;14.53;9.90;;;;;;;0.98;100.00;151621.28;5001466;28;20420;-77
2020/12/01 07:04:23;;;;;;;14.93;9.63;;;;;;;1.04;100.00;151636.69;5005575;28;20455;-76
2020/12/01 07:07:01;;;;;;;14.90;9.20;;;;;;;1.00;100.00;151626.44;5014202;28;20807;-76
2020/12/01 07:09:46;;;;;;;14.70;9.83;;;;;;;1.02;100.00;151630.28;5014391;28;20453;-77
2020/12/01 07:12:31;;;;;;;16.23;10.20;;;;;;;0.99;100.00;151622.56;5014261;28;20440;-76
2020/12/01 07:15:13;;;;;;;10.43;8.50;;;;;;;0.98;100.00;151621.28;4995460;28;20480;-76
2020/12/01 07:17:58;;;;;;;12.50;8.40;;;;;;;1.02;100.00;151630.28;5016230;28;20460;-76
2020/12/01 07:20:41;;;;;;;11.80;9.43;;;;;;;0.98;100.00;151621.28;5009524;28;20466;-76
2020/12/01 07:23:26;;;;;;;12.23;8.90;;;;;;;0.97;100.00;151618.72;5021297;28;20444;-76
2020/12/01 07:26:15;;;;;;;13.10;9.00;;;;;;;0.98;100.00;151621.28;5013871;28;20444;-76
2020/12/01 07:29:00;;;;;;;13.77;9.60;;;;;;;0.99;100.00;151622.56;5011490;28;20442;-76
2020/12/01 07:31:37;;;;;;;14.90;9.93;;;;;;;0.98;100.00;151620.03;5047218;28;20480;-90
2020/12/01 07:34:24;;;;;;;12.67;8.77;;;;;;;0.98;100.00;151621.28;5015890;28;20437;-90
2020/12/01 07:37:21;;;;;;;12.73;8.30;;;;;;;0.98;100.00;151620.03;5015179;28;20469;-90
2020/12/01 07:39:59;;;;;;;14.50;8.40;;;;;;;0.99;100.00;151623.84;5016264;28;20493;-91
2020/12/01 07:42:36;;;;;;;13.57;9.70;;;;;;;0.98;100.00;151621.28;5016417;28;20436;-91
2020/12/01 07:45:14;;;;;;;15.23;10.10;;;;;;;0.99;100.00;151623.84;5009968;28;20539;-91
2020/12/01 07:47:56;;;;;;;14.10;9.40;;;;;;;1.01;100.00;151628.97;5014820;28;20849;-91
2020/12/01 07:50:33;;;;;;;18.80;11.60;;;;;;;1.04;100.00;151635.41;5014640;28;20445;-89
2020/12/01 07:53:10;;;;;;;17.20;10.57;;;;;;;1.03;100.00;151634.09;5031231;28;20795;-89
2020/12/01 07:55:49;;;;;;;15.83;11.13;;;;;;;1.03;100.00;151634.09;5014698;28;20571;-90
2020/12/01 07:58:26;;;;;;;11.50;9.43;;;;;;;1.06;100.00;151641.81;5014682;28;20531;-90
2020/12/01 08:01:14;;;;;;;12.67;9.20;;;;;;;1.05;100.00;151639.28;5014451;28;20881;-90
2020/12/01 08:03:49;;;;;;;14.83;9.43;;;;;;;1.08;100.00;151647.00;4998892;28;20451;-90
2020/12/01 08:06:25;;;;;;;15.10;9.80;;;;;;;1.07;100.00;151644.41;5015001;28;20420;-90
2020/12/01 08:09:03;;;;;;;14.83;9.70;;;;;;;1.07;100.00;151643.13;5015490;28;20844;-90
2020/12/01 08:11:41;;;;;;;13.20;8.10;;;;;;;1.07;100.00;151644.41;5030785;28;20438;-91
2020/12/01 08:14:17;;;;;;;13.90;8.43;;;;;;;1.08;100.00;151647.00;5014452;28;20448;-91
2020/12/01 08:17:03;;;;;;;13.20;8.90;;;;;;;1.09;100.00;151649.53;5015748;28;20483;-92
2020/12/01 08:19:38;;;;;;;11.83;8.27;;;;;;;1.11;100.00;151654.66;5012351;28;20487;-93
2020/12/01 08:22:18;;;;;;;12.47;8.00;;;;;;;1.09;100.00;151649.53;4996291;28;20861;-93
2020/12/01 08:24:57;;;;;;;12.63;8.37;;;;;;;1.11;100.00;151653.41;5025711;28;20468;-91
2020/12/01 08:27:39;;;;;;;12.53;7.37;;;;;;;1.09;100.00;151649.53;5002957;28;20451;-91
2020/12/01 08:30:26;;;;;;;11.97;8.00;;;;;;;1.10;100.00;151652.13;4999948;28;20452;-93
2020/12/01 08:33:10;;;;;;;11.50;7.23;;;;;;;1.09;100.00;151648.25;5013332;28;20528;-91
2020/12/01 08:35:55;;;;;;;12.27;7.50;;;;;;;1.09;100.00;151649.53;5015914;28;20476;-92
2020/12/01 08:38:57;;;;;;;8.90;7.33;;;;;;;1.12;100.00;151655.97;5010882;28;20445;-92
2020/12/01 08:41:44;;;;;;;11.07;7.70;;;;;;;1.11;100.00;151654.66;5005696;28;20469;-92
2020/12/01 08:44:29;;;;;;;9.90;7.20;;;;;;;1.11;100.00;151654.66;5012296;28;20787;-90
2020/12/01 08:47:05;;;;;;;10.90;7.63;;;;;;;1.12;100.00;151657.25;4998847;28;20475;-89
2020/12/01 08:49:44;;;;;;;13.07;7.83;;;;;;;1.14;100.00;151661.09;5014275;28;20788;-90
2020/12/01 08:52:34;;;;;;;13.97;10.00;;;;;;;1.15;100.00;151664.97;5014220;28;20935;-90
2020/12/01 08:55:24;;;;;;;11.60;7.87;;;;;;;1.17;100.00;151670.09;5008436;28;20453;-87
2020/12/01 08:58:08;;;;;;;8.47;6.93;;;;;;;1.16;100.00;151666.25;5010480;28;20449;-87
2020/12/01 09:00:57;;;;;;;10.67;7.57;;;;;;;1.16;100.00;151667.56;5013411;28;20443;-87
2020/12/01 09:03:34;;;;;;;10.83;6.80;;;;;;;1.16;100.00;151667.56;4994682;28;20417;-85
2020/12/01 09:06:22;;;;;;;10.90;7.50;;;;;;;1.17;100.00;151670.09;4993620;28;20847;-83
2020/12/01 09:09:01;;;;;;;9.40;6.90;;;;;;;1.18;100.00;151671.38;5012830;28;20459;-85
2020/12/01 09:11:51;;;;;;;12.73;7.47;;;;;;;1.18;100.00;151672.69;5010605;28;20460;-91
2020/12/01 09:14:46;;;;;;;8.77;6.40;;;;;;;1.19;100.00;151675.22;5010137;28;20444;-91
2020/12/01 09:17:29;;;;;;;8.93;6.50;;;;;;;1.19;100.00;151673.97;4989113;28;20445;-91
2020/12/01 09:20:17;;;;;;;9.40;6.27;;;;;;;1.20;100.00;151676.50;5012313;28;20444;-91
2020/12/01 09:23:05;;;;;;;7.87;6.30;;;;;;;1.21;100.00;151680.41;4986499;28;20881;-91
2020/12/01 09:25:43;;;;;;;9.17;7.17;;;;;;;1.21;100.00;151680.41;4992423;28;20445;-91
2020/12/01 09:28:21;;;;;;;10.30;7.17;;;;;;;1.23;100.00;151685.53;4997160;28;20444;-90
2020/12/01 09:31:01;;;;;;;10.77;7.43;;;;;;;1.24;100.00;151688.06;4985523;28;20457;-90
2020/12/01 09:33:36;;;;;;;16.50;12.10;;;;;;;1.27;100.00;151694.53;4999543;28;20441;-90
2020/12/01 09:36:16;;;;;;;10.60;7.80;;;;;;;1.28;100.00;151697.06;5010411;28;20560;-90
2020/12/01 09:38:52;;;;;;;28.13;12.50;;;;;;;1.28;100.00;151695.78;4994811;28;20450;-89
2020/12/01 09:41:29;;;;;;;14.23;10.77;;;;;;;1.27;100.00;151694.53;5009140;28;20482;-92
2020/12/01 09:44:09;;;;;;;15.40;9.50;;;;;;;1.26;100.00;151691.94;5014097;28;20436;-92
2020/12/01 09:46:52;;;;;;;9.50;7.13;;;;;;;1.28;100.00;151697.06;5012690;28;20432;-91
2020/12/01 09:49:27;;;;;;;10.60;7.33;;;;;;;1.29;100.00;151699.66;5015843;28;20436;-91
2020/12/01 09:52:07;;;;;;;8.53;6.63;;;;;;;1.29;100.00;151698.38;5006985;28;20416;-91
2020/12/01 09:54:47;;;;;;;9.13;6.07;;;;;;;1.30;100.00;151700.94;5000204;28;20448;-91
2020/12/01 09:57:36;;;;;;;9.33;6.67;;;;;;;1.33;100.00;151708.63;4997789;28;20432;-90
2020/12/01 10:00:38;;;;;;;8.27;6.43;;;;;;;1.32;100.00;151707.38;4996643;28;20956;-76
2020/12/01 10:09:14;;;;;;;11.43;7.47;;;;;;;1.33;100.00;151709.91;5007348;28;20446;-75
2020/12/01 10:12:15;;;;;;;12.03;6.63;;;;;;;1.32;100.00;151706.06;4991184;28;20851;-75
2020/12/01 10:17:55;;;;;;;8.90;6.20;;;;;;;1.35;100.00;151715.03;4991587;28;20442;-75
2020/12/01 10:20:57;;;;;;;7.43;6.03;;;;;;;1.32;100.00;151706.06;5007446;28;20448;-75
2020/12/01 10:35:25;;;;;;;8.77;6.93;;;;;;;1.35;100.00;151713.78;4978193;28;21009;-76
2020/12/01 10:38:00;;;;;;;9.80;7.27;;;;;;;1.37;100.00;151720.22;4991385;28;20453;-76
2020/12/01 10:40:36;;;;;;;9.30;7.00;;;;;;;1.38;100.00;151721.50;5001718;28;20471;-75
2020/12/01 10:43:12;;;;;;;10.07;7.70;;;;;;;1.37;100.00;151718.91;4993816;28;20452;-76
2020/12/01 10:45:49;;;;;;;8.50;6.70;;;;;;;1.39;100.00;151724.03;4994382;28;20807;-75
2020/12/01 10:48:24;;;;;;;15.03;7.27;;;;;;;1.39;100.00;151724.03;4994644;28;20467;-75
2020/12/01 10:50:59;;;;;;;8.93;6.90;;;;;;;1.37;100.00;151718.91;4994852;28;20451;-76
2020/12/01 10:53:35;;;;;;;8.30;6.60;;;;;;;1.38;100.00;151721.50;5011087;28;20832;-75
2020/12/01 10:56:11;;;;;;;11.33;7.43;;;;;;;1.41;100.00;151729.16;5005702;28;20461;-75
2020/12/01 10:58:47;;;;;;;8.30;7.07;;;;;;;1.42;100.00;151731.75;4996638;28;20520;-76
2020/12/01 11:01:23;;;;;;;9.90;7.00;;;;;;;1.42;100.00;151731.75;4996841;28;20502;-76
2020/12/01 11:03:58;;;;;;;9.30;7.03;;;;;;;1.42;100.00;151731.75;4997337;28;20448;-76
2020/12/01 11:06:36;;;;;;;10.10;7.07;;;;;;;1.43;100.00;151734.34;4997516;28;20442;-76
2020/12/01 11:09:11;;;;;;;8.70;7.00;;;;;;;1.43;100.00;151734.34;5015324;28;20454;-75
2020/12/01 11:11:50;;;;;;;8.30;6.40;;;;;;;1.45;100.00;151739.47;4996856;28;20451;-76
2020/12/01 11:14:25;;;;;;;9.83;6.63;;;;;;;1.44;100.00;151738.19;4997424;28;20552;-76
2020/12/01 11:17:01;;;;;;;11.93;7.77;;;;;;;1.46;100.00;151742.00;4986915;28;20480;-76
2020/12/01 11:19:37;;;;;;;11.17;8.20;;;;;;;1.46;100.00;151743.31;4990520;28;20451;-75
2020/12/01 11:22:13;;;;;;;12.43;8.37;;;;;;;1.46;100.00;151742.00;5015127;28;20806;-76
2020/12/01 11:24:48;;;;;;;8.60;7.07;;;;;;;1.47;100.00;151744.59;5014857;28;20520;-76
2020/12/01 11:27:24;;;;;;;8.70;6.43;;;;;;;1.49;100.00;151749.72;5014412;28;20440;-75
2020/12/01 11:29:59;;;;;;;9.33;6.63;;;;;;;1.49;100.00;151749.72;4995028;28;20460;-75
2020/12/01 11:32:36;;;;;;;7.77;6.33;;;;;;;1.50;100.00;151753.63;4988042;28;20436;-76
2020/12/01 11:35:12;;;;;;;11.17;7.03;;;;;;;1.50;100.00;151752.31;5011755;28;20452;-76
2020/12/01 11:37:47;;;;;;;10.30;8.17;;;;;;;1.51;100.00;151754.91;5000395;28;20441;-75
2020/12/01 11:40:23;;;;;;;10.80;8.00;;;;;;;1.49;100.00;151751.03;5014518;28;20444;-75
2020/12/01 11:42:59;;;;;;;9.47;7.80;;;;;;;1.50;100.00;151752.31;4996775;28;20473;-75
2020/12/01 11:45:34;;;;;;;9.23;7.10;;;;;;;1.50;100.00;151753.63;4995739;28;20444;-75
2020/12/01 11:48:10;;;;;;;9.50;8.07;;;;;;;1.50;100.00;151752.31;4978033;28;20453;-75
2020/12/01 11:50:46;;;;;;;14.40;8.70;;;;;;;1.51;100.00;151754.91;5011828;28;20457;-76
2020/12/01 11:53:21;;;;;;;9.17;7.77;;;;;;;1.54;100.00;151762.56;5013773;28;20485;-75
2020/12/01 11:55:56;;;;;;;19.87;14.00;;;;;;;1.51;100.00;151754.91;5013537;28;20476;-75
2020/12/01 11:58:32;;;;;;;26.97;15.20;;;;;;;1.53;100.00;151761.34;5014693;28;20414;-75
2020/12/01 12:01:07;;;;;;;17.73;12.97;;;;;;;1.54;100.00;151763.88;4996201;28;20448;-75
2020/12/01 12:03:43;;;;;;;15.77;11.23;;;;;;;1.57;100.00;151771.59;4996110;28;20456;-75
2020/12/01 12:06:19;;;;;;;17.33;12.00;;;;;;;1.58;100.00;151774.19;4995262;28;20481;-75
2020/12/01 12:08:54;;;;;;;11.43;8.60;;;;;;;1.59;100.00;151775.47;4996394;28;21160;-75
2020/12/01 12:11:29;;;;;;;11.43;9.50;;;;;;;1.59;100.00;151776.72;4982093;28;20967;-75
2020/12/01 12:14:06;;;;;;;11.77;8.53;;;;;;;1.57;100.00;151771.59;4983125;28;20452;-75
2020/12/01 12:16:41;;;;;;;10.70;9.00;;;;;;;1.60;100.00;151778.00;4991682;28;20483;-75
2020/12/01 12:19:17;;;;;;;13.20;8.30;;;;;;;1.59;100.00;151775.47;5011886;28;20538;-75
2020/12/01 12:21:53;;;;;;;12.20;9.20;;;;;;;1.59;100.00;151776.72;4980759;28;20440;-75
2020/12/01 12:24:28;;;;;;;8.63;7.10;;;;;;;1.59;100.00;151775.47;4980365;28;20460;-75
2020/12/01 12:27:03;;;;;;;10.10;6.90;;;;;;;1.61;100.00;151780.59;5000932;28;20476;-75
2020/12/01 12:29:39;;;;;;;10.53;6.77;;;;;;;1.62;100.00;151783.13;4996542;28;20453;-76
2020/12/01 12:32:14;;;;;;;9.80;6.90;;;;;;;1.63;100.00;151785.72;4996631;28;20429;-75